createdAt,value
2017-09-13T00:03:15.130Z,12.20
2017-09-13T00:08:18.319Z,12.40
2017-09-13T00:13:21.521Z,12.50
2017-09-13T00:18:24.743Z,12.40
2017-09-13T00:23:27.967Z,12.40
2017-09-13T00:28:31.167Z,12.30
2017-09-13T00:33:34.374Z,12.20
2017-09-13T00:38:37.586Z,12.10
2017-09-13T00:43:40.757Z,12.10
2017-09-13T00:48:43.975Z,11.90
2017-09-13T00:53:47.170Z,11.80
2017-09-13T00:58:50.427Z,11.70
2017-09-13T01:03:53.636Z,11.70
2017-09-13T01:08:56.858Z,11.60
2017-09-13T01:14:00.081Z,11.40
2017-09-13T01:19:03.277Z,11.50
2017-09-13T01:24:07.396Z,11.90
2017-09-13T01:29:10.602Z,11.90
2017-09-13T01:34:13.824Z,12.00
2017-09-13T01:39:17.796Z,12.10
2017-09-13T01:44:21.056Z,12.10
2017-09-13T01:49:24.340Z,12.10
2017-09-13T01:54:27.560Z,12.20
2017-09-13T01:59:30.781Z,12.20
2017-09-13T02:04:34.740Z,12.30
2017-09-13T02:09:37.956Z,12.30
2017-09-13T02:14:41.145Z,12.30
2017-09-13T02:19:44.355Z,12.40
2017-09-13T02:24:47.535Z,12.50
2017-09-13T02:29:50.760Z,12.70
2017-09-13T02:34:53.968Z,12.70
2017-09-13T02:39:57.233Z,12.70
2017-09-13T02:45:00.451Z,12.80
2017-09-13T02:50:03.639Z,12.90
2017-09-13T02:55:06.873Z,13.00
2017-09-13T03:00:10.843Z,13.10
2017-09-13T03:05:14.069Z,13.10
2017-09-13T03:10:17.271Z,13.10
2017-09-13T03:15:20.521Z,13.10
2017-09-13T03:20:23.730Z,13.20
2017-09-13T03:25:27.715Z,13.20
2017-09-13T03:30:30.921Z,13.20
2017-09-13T03:35:34.137Z,13.20
2017-09-13T03:40:37.485Z,13.30
2017-09-13T03:45:40.698Z,13.30
2017-09-13T03:50:43.916Z,13.30
2017-09-13T03:55:47.124Z,13.30
2017-09-13T04:00:50.349Z,13.40
2017-09-13T04:05:53.638Z,13.30
2017-09-13T04:10:56.833Z,13.30
2017-09-13T04:16:00.092Z,13.20
2017-09-13T04:21:03.340Z,13.20
2017-09-13T04:26:07.466Z,13.20
2017-09-13T04:31:11.405Z,13.00
2017-09-13T04:36:14.637Z,12.90
2017-09-13T04:41:17.861Z,12.90
2017-09-13T04:46:21.072Z,12.90
2017-09-13T04:51:24.275Z,12.60
2017-09-13T04:56:27.497Z,12.40
2017-09-13T05:01:30.732Z,12.40
2017-09-13T05:06:34.683Z,12.60
2017-09-13T05:11:38.002Z,12.60
2017-09-13T05:16:41.191Z,13.10
2017-09-13T05:21:44.383Z,13.20
2017-09-13T05:26:48.340Z,13.30
2017-09-13T05:31:51.552Z,13.30
2017-09-13T05:36:54.738Z,13.30
2017-09-13T05:41:57.921Z,13.30
2017-09-13T05:47:01.890Z,13.30
2017-09-13T05:52:05.092Z,13.20
2017-09-13T05:57:08.281Z,13.30
2017-09-13T06:02:11.458Z,13.30
2017-09-13T06:07:15.465Z,13.20
2017-09-13T06:12:18.680Z,13.20
2017-09-13T06:17:21.864Z,13.30
2017-09-13T06:22:25.075Z,13.00
2017-09-13T06:27:28.367Z,12.90
2017-09-13T06:32:31.608Z,12.70
2017-09-13T06:37:34.793Z,12.60
2017-09-13T06:42:37.999Z,12.50
2017-09-13T06:47:41.173Z,12.40
2017-09-13T06:52:44.485Z,12.50
2017-09-13T06:57:47.696Z,12.50
2017-09-13T07:02:50.881Z,12.50
2017-09-13T07:07:54.065Z,12.60
2017-09-13T07:12:58.154Z,12.80
2017-09-13T07:18:01.343Z,12.80
2017-09-13T07:23:04.594Z,12.80
2017-09-13T07:28:07.796Z,12.90
2017-09-13T07:33:10.980Z,13.00
2017-09-13T07:38:14.212Z,12.90
2017-09-13T07:43:17.425Z,13.00
2017-09-13T07:48:20.625Z,13.10
2017-09-13T07:53:23.806Z,13.20
2017-09-13T07:58:27.012Z,13.20
2017-09-13T08:03:30.229Z,13.30
2017-09-13T08:08:33.428Z,13.30
2017-09-13T08:13:36.635Z,13.50
2017-09-13T08:18:39.868Z,13.70
2017-09-13T08:23:43.071Z,13.80
2017-09-13T08:28:46.263Z,13.80
2017-09-13T08:33:49.487Z,13.90
2017-09-13T08:38:52.696Z,13.80
2017-09-13T08:43:56.707Z,13.70
2017-09-13T08:48:59.906Z,13.70
2017-09-13T08:54:03.141Z,13.70
2017-09-13T08:59:07.113Z,13.90
2017-09-13T09:04:10.318Z,13.80
2017-09-13T09:09:13.539Z,14.00
2017-09-13T09:14:16.764Z,14.20
2017-09-13T09:19:19.988Z,14.20
2017-09-13T09:24:23.977Z,14.30
2017-09-13T09:29:27.188Z,14.20
2017-09-13T09:34:30.393Z,14.30
2017-09-13T09:41:55.035Z,14.40
2017-09-13T09:46:59.011Z,14.80
2017-09-13T09:52:02.227Z,14.80
2017-09-13T09:57:05.422Z,14.80
2017-09-13T10:02:08.858Z,14.90
2017-09-13T10:07:12.050Z,15.00
2017-09-13T10:12:15.229Z,15.20
2017-09-13T10:17:18.449Z,15.20
2017-09-13T10:22:21.710Z,15.30
2017-09-13T10:27:24.922Z,15.30
2017-09-13T10:32:28.132Z,15.40
2017-09-13T10:37:32.116Z,15.60
2017-09-13T10:42:35.312Z,15.60
2017-09-13T10:47:38.581Z,15.70
2017-09-13T10:52:42.561Z,15.70
2017-09-13T10:57:45.759Z,15.70
2017-09-13T11:02:48.972Z,15.90
2017-09-13T11:07:52.174Z,16.00
2017-09-13T11:12:55.473Z,16.00
2017-09-13T11:17:58.697Z,15.60
2017-09-13T11:23:01.886Z,15.40
2017-09-13T11:28:05.086Z,15.30
2017-09-13T11:33:08.277Z,15.30
2017-09-13T11:38:11.495Z,15.70
2017-09-13T11:43:14.693Z,16.00
2017-09-13T11:48:17.912Z,16.60
2017-09-13T11:53:21.135Z,17.20
2017-09-13T11:58:24.331Z,17.50
2017-09-13T12:03:27.610Z,17.70
2017-09-13T12:08:31.578Z,17.90
2017-09-13T12:13:35.522Z,17.90
2017-09-13T12:18:38.741Z,18.10
2017-09-13T12:23:41.977Z,18.20
2017-09-13T12:28:45.189Z,18.20
2017-09-13T12:33:48.483Z,18.40
2017-09-13T12:38:52.455Z,18.60
2017-09-13T12:43:55.621Z,18.60
2017-09-13T12:48:58.844Z,19.00
2017-09-13T12:54:02.071Z,19.40
2017-09-13T12:59:05.290Z,19.30
2017-09-13T13:04:08.496Z,19.40
2017-09-13T13:09:11.764Z,19.50
2017-09-13T13:14:15.114Z,19.60
2017-09-13T13:19:18.319Z,19.40
2017-09-13T13:24:21.539Z,19.40
2017-09-13T13:29:25.094Z,20.00
2017-09-13T13:34:29.103Z,20.20
2017-09-13T13:39:32.297Z,20.20
2017-09-13T13:44:35.510Z,20.20
2017-09-13T13:49:38.730Z,20.00
2017-09-13T13:54:42.726Z,20.00
2017-09-13T13:59:45.975Z,19.90
2017-09-13T14:04:49.950Z,20.20
2017-09-13T14:09:53.167Z,20.20
2017-09-13T14:14:56.377Z,20.10
2017-09-13T14:19:59.599Z,20.30
2017-09-13T14:25:02.833Z,20.70
2017-09-13T14:30:06.801Z,20.40
2017-09-13T14:35:10.013Z,20.40
2017-09-13T14:40:13.341Z,20.20
2017-09-13T14:45:16.535Z,20.00
2017-09-13T14:50:19.761Z,19.90
2017-09-13T14:55:22.981Z,19.90
2017-09-13T15:00:26.971Z,19.60
2017-09-13T15:05:30.197Z,19.60
2017-09-13T15:10:33.393Z,19.30
2017-09-13T15:15:36.584Z,18.80
2017-09-13T15:20:39.812Z,18.30
2017-09-13T15:25:43.262Z,17.70
2017-09-13T15:30:46.496Z,17.00
2017-09-13T15:35:49.721Z,16.80
2017-09-13T15:40:53.036Z,16.80
2017-09-13T15:45:56.305Z,16.60
2017-09-13T15:50:59.549Z,16.60
2017-09-13T15:56:02.758Z,16.40
2017-09-13T16:01:05.978Z,16.40
2017-09-13T16:06:09.239Z,16.30
2017-09-13T16:11:12.482Z,16.30
2017-09-13T16:16:15.727Z,16.30
2017-09-13T16:21:19.746Z,16.10
2017-09-13T16:26:22.994Z,16.10
2017-09-13T16:31:26.217Z,16.00
2017-09-13T16:36:29.796Z,15.90
2017-09-13T16:41:33.022Z,15.80
2017-09-13T16:46:36.305Z,15.70
2017-09-13T16:51:40.261Z,15.20
2017-09-13T16:56:43.504Z,15.10
2017-09-13T17:01:46.718Z,15.00
2017-09-13T17:06:49.989Z,14.90
2017-09-13T17:11:53.184Z,14.80
2017-09-13T17:16:56.414Z,14.80
2017-09-13T17:21:59.643Z,14.60
2017-09-13T17:27:02.903Z,14.30
2017-09-13T17:32:06.156Z,13.90
2017-09-13T17:37:09.590Z,13.90
2017-09-13T17:42:13.583Z,13.50
2017-09-13T17:47:16.797Z,13.40
2017-09-13T17:52:20.001Z,13.40
2017-09-13T17:57:23.227Z,13.20
2017-09-13T18:02:26.403Z,13.20
2017-09-13T18:07:29.642Z,13.10
2017-09-13T18:12:33.619Z,13.00
2017-09-13T18:17:36.850Z,12.90
2017-09-13T18:22:40.067Z,12.80
2017-09-13T18:27:43.292Z,12.70
2017-09-13T18:32:47.265Z,12.70
2017-09-13T18:37:50.464Z,12.70
2017-09-13T18:42:53.685Z,12.70
2017-09-13T18:47:56.910Z,12.80
2017-09-13T18:53:00.140Z,12.80
2017-09-13T18:58:04.117Z,12.80
2017-09-13T19:03:07.417Z,12.80
2017-09-13T19:08:10.640Z,12.80
2017-09-13T19:13:13.866Z,12.90
2017-09-13T19:18:17.143Z,12.80
2017-09-13T19:23:20.415Z,12.80
2017-09-13T19:28:23.624Z,12.80
2017-09-13T19:33:26.849Z,12.80
2017-09-13T19:38:30.193Z,12.80
2017-09-13T19:43:33.415Z,12.70
2017-09-13T19:48:36.655Z,12.70
2017-09-13T19:53:40.066Z,12.60
2017-09-13T19:58:44.084Z,12.50
2017-09-13T20:03:48.064Z,12.50
2017-09-13T20:08:51.515Z,12.50
2017-09-13T20:13:55.521Z,12.40
2017-09-13T20:18:58.722Z,12.40
2017-09-13T20:24:01.938Z,12.40
2017-09-13T20:29:05.217Z,12.40
2017-09-13T20:34:08.500Z,12.40
2017-09-13T20:39:11.821Z,12.50
2017-09-13T20:44:15.056Z,12.50
2017-09-13T20:49:18.271Z,12.40
2017-09-13T20:54:21.486Z,12.50
2017-09-13T20:59:24.692Z,12.50
2017-09-13T21:04:27.960Z,12.50
2017-09-13T21:09:31.191Z,12.50
2017-09-13T21:14:34.397Z,12.50
2017-09-13T21:19:37.595Z,12.50
2017-09-13T21:24:40.902Z,12.60
2017-09-13T21:29:44.146Z,12.50
2017-09-13T21:34:48.168Z,12.60
2017-09-13T21:39:51.390Z,12.50
2017-09-13T21:44:55.357Z,12.60
2017-09-13T21:49:58.566Z,12.60
2017-09-13T21:55:01.782Z,12.60
2017-09-13T22:00:05.000Z,12.60
2017-09-13T22:05:08.230Z,12.70
2017-09-13T22:10:11.430Z,12.60
2017-09-13T22:15:14.757Z,12.60
2017-09-13T22:20:18.110Z,12.70
2017-09-13T22:25:21.373Z,12.80
2017-09-13T22:30:25.365Z,12.80
2017-09-13T22:35:28.634Z,12.80
2017-09-13T22:40:31.866Z,12.80
2017-09-13T22:45:35.071Z,12.80
2017-09-13T22:50:38.284Z,12.80
2017-09-13T22:55:41.534Z,12.70
2017-09-13T23:00:45.602Z,12.80
2017-09-13T23:05:48.804Z,12.80
2017-09-13T23:10:52.006Z,12.80
2017-09-13T23:15:55.212Z,12.80
2017-09-13T23:20:58.407Z,12.80
2017-09-13T23:26:01.677Z,12.80
2017-09-13T23:31:04.893Z,12.80
2017-09-13T23:36:08.122Z,12.80
2017-09-13T23:41:12.212Z,12.70
2017-09-13T23:46:15.413Z,12.60
2017-09-13T23:51:18.755Z,12.70
2017-09-13T23:56:22.720Z,12.70
